sensor_id;sensor_type;location;lat;lon;timestamp;pressure;altitude;pressure_sealevel;temperature;humidity
69219;BME280;56232;53.384;-2.732;2023-09-19T00:01:25;99888.35;;;13.92;34.35
69219;BME280;56232;53.384;-2.732;2023-09-19T00:03:51;99882.49;;;13.32;34.48
69219;BME280;56232;53.384;-2.732;2023-09-19T00:06:16;99882.72;;;13.94;34.30
69219;BME280;56232;53.384;-2.732;2023-09-19T00:08:42;99879.48;;;13.99;34.68
69219;BME280;56232;53.384;-2.732;2023-09-19T00:11:07;99872.93;;;14.03;34.55
69219;BME280;56232;53.384;-2.732;2023-09-19T00:13:33;99872.47;;;14.10;34.66
69219;BME280;56232;53.384;-2.732;2023-09-19T00:16:13;99875.07;;;14.17;34.50
69219;BME280;56232;53.384;-2.732;2023-09-19T00:18:24;99879.04;;;13.59;33.98
69219;BME280;56232;53.384;-2.732;2023-09-19T00:20:50;99878.78;;;13.63;34.48
69219;BME280;56232;53.384;-2.732;2023-09-19T00:23:15;99880.61;;;14.22;34.31
69219;BME280;56232;53.384;-2.732;2023-09-19T00:25:41;99880.09;;;13.66;34.00
69219;BME280;56232;53.384;-2.732;2023-09-19T00:28:07;99876.01;;;14.10;34.07
69219;BME280;56232;53.384;-2.732;2023-09-19T00:30:32;99875.05;;;14.13;34.33
69219;BME280;56232;53.384;-2.732;2023-09-19T00:32:57;99879.95;;;13.61;34.21
69219;BME280;56232;53.384;-2.732;2023-09-19T00:35:23;99883.35;;;13.15;33.98
69219;BME280;56232;53.384;-2.732;2023-09-19T00:37:49;99889.61;;;13.63;33.83
69219;BME280;56232;53.384;-2.732;2023-09-19T00:40:14;99894.04;;;14.23;34.39
69219;BME280;56232;53.384;-2.732;2023-09-19T00:42:40;99893.37;;;13.18;33.44
69219;BME280;56232;53.384;-2.732;2023-09-19T00:45:07;99888.77;;;14.27;34.09
69219;BME280;56232;53.384;-2.732;2023-09-19T00:47:31;99894.51;;;14.38;34.17
69219;BME280;56232;53.384;-2.732;2023-09-19T00:49:57;99892.94;;;13.45;34.55
69219;BME280;56232;53.384;-2.732;2023-09-19T00:52:22;99893.49;;;14.05;34.48
69219;BME280;56232;53.384;-2.732;2023-09-19T00:54:48;99889.87;;;13.68;34.32
69219;BME280;56232;53.384;-2.732;2023-09-19T00:57:13;99881.09;;;14.35;34.63
69219;BME280;56232;53.384;-2.732;2023-09-19T00:59:39;99878.48;;;13.35;34.21
69219;BME280;56232;53.384;-2.732;2023-09-19T01:02:05;99873.10;;;15.04;33.28
69219;BME280;56232;53.384;-2.732;2023-09-19T01:04:31;99868.57;;;14.30;33.25
69219;BME280;56232;53.384;-2.732;2023-09-19T01:06:56;99867.29;;;14.33;34.18
69219;BME280;56232;53.384;-2.732;2023-09-19T01:09:21;99867.91;;;14.38;33.66
69219;BME280;56232;53.384;-2.732;2023-09-19T01:11:48;99870.56;;;13.78;33.83
69219;BME280;56232;53.384;-2.732;2023-09-19T01:14:34;99868.46;;;13.63;33.44
69219;BME280;56232;53.384;-2.732;2023-09-19T01:16:47;99861.84;;;14.00;33.50
69219;BME280;56232;53.384;-2.732;2023-09-19T01:19:20;99864.15;;;14.02;33.32
69219;BME280;56232;53.384;-2.732;2023-09-19T01:21:34;99869.08;;;14.62;34.14
69219;BME280;56232;53.384;-2.732;2023-09-19T01:24:15;99870.33;;;14.61;33.33
69219;BME280;56232;53.384;-2.732;2023-09-19T01:26:30;99875.93;;;13.89;33.53
69219;BME280;56232;53.384;-2.732;2023-09-19T01:28:52;99869.65;;;13.99;33.65
69219;BME280;56232;53.384;-2.732;2023-09-19T01:31:12;99867.37;;;13.53;34.16
69219;BME280;56232;53.384;-2.732;2023-09-19T01:36:03;99858.24;;;13.72;34.18
69219;BME280;56232;53.384;-2.732;2023-09-19T01:38:28;99867.55;;;13.85;34.00
69219;BME280;56232;53.384;-2.732;2023-09-19T01:41:02;99862.02;;;14.48;34.41
69219;BME280;56232;53.384;-2.732;2023-09-19T01:43:23;99867.90;;;14.55;34.25
69219;BME280;56232;53.384;-2.732;2023-09-19T01:45:50;99871.73;;;14.59;33.39
69219;BME280;56232;53.384;-2.732;2023-09-19T01:48:19;99866.15;;;14.02;33.32
69219;BME280;56232;53.384;-2.732;2023-09-19T01:50:41;99862.28;;;13.96;33.90
69219;BME280;56232;53.384;-2.732;2023-09-19T01:53:05;99854.46;;;14.04;34.13
69219;BME280;56232;53.384;-2.732;2023-09-19T01:55:29;99848.53;;;13.49;34.26
69219;BME280;56232;53.384;-2.732;2023-09-19T01:58:01;99845.89;;;14.71;34.27
69219;BME280;56232;53.384;-2.732;2023-09-19T02:00:19;99849.48;;;14.24;34.15
69219;BME280;56232;53.384;-2.732;2023-09-19T02:02:46;99852.10;;;14.41;34.41
69219;BME280;56232;53.384;-2.732;2023-09-19T02:05:09;99851.75;;;14.51;33.98
69219;BME280;56232;53.384;-2.732;2023-09-19T02:07:34;99846.36;;;14.51;33.64
69219;BME280;56232;53.384;-2.732;2023-09-19T02:10:00;99839.96;;;14.47;33.14
69219;BME280;56232;53.384;-2.732;2023-09-19T02:12:25;99832.36;;;14.39;32.62
69219;BME280;56232;53.384;-2.732;2023-09-19T02:14:51;99830.83;;;14.28;33.09
69219;BME280;56232;53.384;-2.732;2023-09-19T02:17:16;99828.17;;;14.27;33.73
69219;BME280;56232;53.384;-2.732;2023-09-19T02:19:42;99821.76;;;14.26;33.20
69219;BME280;56232;53.384;-2.732;2023-09-19T02:22:08;99819.40;;;14.18;33.40
69219;BME280;56232;53.384;-2.732;2023-09-19T02:24:33;99813.59;;;14.72;33.19
69219;BME280;56232;53.384;-2.732;2023-09-19T02:26:59;99809.01;;;13.63;33.39
69219;BME280;56232;53.384;-2.732;2023-09-19T02:29:24;99806.82;;;14.36;33.79
69219;BME280;56232;53.384;-2.732;2023-09-19T02:31:50;99807.42;;;14.50;33.72
69219;BME280;56232;53.384;-2.732;2023-09-19T02:34:15;99810.27;;;14.58;33.62
69219;BME280;56232;53.384;-2.732;2023-09-19T02:36:41;99812.49;;;14.67;34.15
69219;BME280;56232;53.384;-2.732;2023-09-19T02:39:07;99811.61;;;14.27;33.48
69219;BME280;56232;53.384;-2.732;2023-09-19T02:41:32;99812.56;;;14.80;33.92
69219;BME280;56232;53.384;-2.732;2023-09-19T02:43:58;99804.78;;;14.77;33.28
69219;BME280;56232;53.384;-2.732;2023-09-19T02:46:23;99797.58;;;14.46;33.37
69219;BME280;56232;53.384;-2.732;2023-09-19T02:48:49;99803.34;;;14.08;33.34
69219;BME280;56232;53.384;-2.732;2023-09-19T02:51:15;99801.01;;;13.71;33.94
69219;BME280;56232;53.384;-2.732;2023-09-19T02:53:40;99797.19;;;13.93;34.33
69219;BME280;56232;53.384;-2.732;2023-09-19T02:56:07;99797.99;;;14.45;34.29
69219;BME280;56232;53.384;-2.732;2023-09-19T02:58:31;99797.47;;;13.33;35.25
69219;BME280;56232;53.384;-2.732;2023-09-19T03:00:57;99797.61;;;13.36;34.92
69219;BME280;56232;53.384;-2.732;2023-09-19T03:03:22;99800.34;;;14.31;35.21
69219;BME280;56232;53.384;-2.732;2023-09-19T03:05:48;99799.20;;;13.16;34.95
69219;BME280;56232;53.384;-2.732;2023-09-19T03:08:13;99789.25;;;14.13;34.80
69219;BME280;56232;53.384;-2.732;2023-09-19T03:10:39;99781.54;;;13.91;34.40
69219;BME280;56232;53.384;-2.732;2023-09-19T03:13:05;99776.03;;;13.67;34.87
69219;BME280;56232;53.384;-2.732;2023-09-19T03:15:30;99776.14;;;13.62;34.87
69219;BME280;56232;53.384;-2.732;2023-09-19T03:17:55;99766.52;;;13.56;35.53
69219;BME280;56232;53.384;-2.732;2023-09-19T03:20:21;99760.77;;;13.55;35.34
69219;BME280;56232;53.384;-2.732;2023-09-19T03:22:46;99753.39;;;13.96;34.85
69219;BME280;56232;53.384;-2.732;2023-09-19T03:25:12;99746.59;;;12.82;34.85
69219;BME280;56232;53.384;-2.732;2023-09-19T03:27:37;99737.62;;;13.84;34.96
69219;BME280;56232;53.384;-2.732;2023-09-19T03:30:04;99728.80;;;13.32;35.21
69219;BME280;56232;53.384;-2.732;2023-09-19T03:32:28;99721.24;;;13.34;35.74
69219;BME280;56232;53.384;-2.732;2023-09-19T03:34:54;99713.29;;;13.38;35.09
69219;BME280;56232;53.384;-2.732;2023-09-19T03:37:19;99713.88;;;13.42;35.57
69219;BME280;56232;53.384;-2.732;2023-09-19T03:39:45;99711.21;;;13.61;35.77
69219;BME280;56232;53.384;-2.732;2023-09-19T03:42:11;99710.07;;;13.24;35.73
69219;BME280;56232;53.384;-2.732;2023-09-19T03:44:36;99707.97;;;12.79;36.03
69219;BME280;56232;53.384;-2.732;2023-09-19T03:47:02;99701.38;;;13.82;35.64
69219;BME280;56232;53.384;-2.732;2023-09-19T03:49:27;99690.06;;;13.15;36.02
69219;BME280;56232;53.384;-2.732;2023-09-19T03:51:53;99682.93;;;13.67;35.92
69219;BME280;56232;53.384;-2.732;2023-09-19T03:54:18;99678.79;;;14.20;36.25
69219;BME280;56232;53.384;-2.732;2023-09-19T03:56:44;99671.00;;;14.16;36.37
69219;BME280;56232;53.384;-2.732;2023-09-19T03:59:10;99666.90;;;12.99;35.76
69219;BME280;56232;53.384;-2.732;2023-09-19T04:01:35;99661.86;;;13.59;35.48
69219;BME280;56232;53.384;-2.732;2023-09-19T04:04:01;99654.69;;;13.54;35.53
69219;BME280;56232;53.384;-2.732;2023-09-19T04:06:27;99639.94;;;13.43;36.61
69219;BME280;56232;53.384;-2.732;2023-09-19T04:08:52;99636.52;;;13.78;37.14
69219;BME280;56232;53.384;-2.732;2023-09-19T04:11:18;99628.92;;;13.02;37.35
69219;BME280;56232;53.384;-2.732;2023-09-19T04:13:44;99622.92;;;12.78;37.42
69219;BME280;56232;53.384;-2.732;2023-09-19T04:16:09;99612.36;;;12.78;38.14
69219;BME280;56232;53.384;-2.732;2023-09-19T04:18:35;99607.08;;;12.51;38.09
69219;BME280;56232;53.384;-2.732;2023-09-19T04:21:00;99595.14;;;12.60;39.13
69219;BME280;56232;53.384;-2.732;2023-09-19T04:23:26;99582.28;;;12.31;39.52
69219;BME280;56232;53.384;-2.732;2023-09-19T04:25:51;99574.27;;;11.89;39.73
69219;BME280;56232;53.384;-2.732;2023-09-19T04:28:17;99563.21;;;11.46;41.01
69219;BME280;56232;53.384;-2.732;2023-09-19T04:30:43;99555.25;;;11.16;42.45
69219;BME280;56232;53.384;-2.732;2023-09-19T04:33:08;99545.49;;;11.52;43.22
69219;BME280;56232;53.384;-2.732;2023-09-19T04:35:34;99537.99;;;10.59;43.91
69219;BME280;56232;53.384;-2.732;2023-09-19T04:37:59;99530.02;;;10.34;44.51
69219;BME280;56232;53.384;-2.732;2023-09-19T04:40:24;99523.66;;;11.19;45.01
69219;BME280;56232;53.384;-2.732;2023-09-19T04:42:53;99513.89;;;11.07;45.63
69219;BME280;56232;53.384;-2.732;2023-09-19T04:45:16;99508.58;;;11.17;45.63
69219;BME280;56232;53.384;-2.732;2023-09-19T04:47:41;99494.52;;;11.72;45.81
69219;BME280;56232;53.384;-2.732;2023-09-19T04:50:08;99484.06;;;11.19;45.69
69219;BME280;56232;53.384;-2.732;2023-09-19T04:52:33;99480.85;;;11.16;46.28
69219;BME280;56232;53.384;-2.732;2023-09-19T04:54:58;99463.89;;;11.89;46.14
69219;BME280;56232;53.384;-2.732;2023-09-19T04:57:24;99457.70;;;11.47;46.01
69219;BME280;56232;53.384;-2.732;2023-09-19T04:59:50;99449.90;;;11.40;46.08
69219;BME280;56232;53.384;-2.732;2023-09-19T05:02:15;99437.75;;;11.45;46.36
69219;BME280;56232;53.384;-2.732;2023-09-19T05:04:41;99430.85;;;11.58;46.48
69219;BME280;56232;53.384;-2.732;2023-09-19T05:07:07;99420.57;;;11.52;46.77
69219;BME280;56232;53.384;-2.732;2023-09-19T05:09:32;99412.59;;;11.59;46.55
69219;BME280;56232;53.384;-2.732;2023-09-19T05:11:58;99406.59;;;11.75;46.57
69219;BME280;56232;53.384;-2.732;2023-09-19T05:14:24;99398.18;;;10.75;46.95
69219;BME280;56232;53.384;-2.732;2023-09-19T05:16:49;99387.97;;;12.06;46.70
69219;BME280;56232;53.384;-2.732;2023-09-19T05:19:15;99378.25;;;12.16;46.42
69219;BME280;56232;53.384;-2.732;2023-09-19T05:21:41;99371.99;;;12.26;46.65
69219;BME280;56232;53.384;-2.732;2023-09-19T05:24:07;99362.48;;;12.24;46.77
69219;BME280;56232;53.384;-2.732;2023-09-19T05:26:32;99361.85;;;11.26;47.42
69219;BME280;56232;53.384;-2.732;2023-09-19T05:28:58;99346.06;;;11.98;47.11
69219;BME280;56232;53.384;-2.732;2023-09-19T05:31:23;99341.61;;;11.44;47.24
69219;BME280;56232;53.384;-2.732;2023-09-19T05:33:49;99332.75;;;12.08;46.56
69219;BME280;56232;53.384;-2.732;2023-09-19T05:36:14;99330.24;;;11.55;46.02
69219;BME280;56232;53.384;-2.732;2023-09-19T05:38:40;99336.58;;;11.52;46.33
69219;BME280;56232;53.384;-2.732;2023-09-19T05:41:06;99319.62;;;12.04;47.03
69219;BME280;56232;53.384;-2.732;2023-09-19T05:43:31;99313.67;;;11.54;46.84
69219;BME280;56232;53.384;-2.732;2023-09-19T05:45:59;99298.34;;;11.68;47.55
69219;BME280;56232;53.384;-2.732;2023-09-19T05:48:22;99309.24;;;11.73;46.78
69219;BME280;56232;53.384;-2.732;2023-09-19T05:50:48;99288.15;;;11.69;47.47
69219;BME280;56232;53.384;-2.732;2023-09-19T05:53:13;99281.62;;;12.38;47.55
69219;BME280;56232;53.384;-2.732;2023-09-19T05:55:39;99279.56;;;11.96;47.34
69219;BME280;56232;53.384;-2.732;2023-09-19T05:58:05;99268.08;;;11.94;46.56
69219;BME280;56232;53.384;-2.732;2023-09-19T06:00:30;99266.47;;;12.06;47.63
69219;BME280;56232;53.384;-2.732;2023-09-19T06:02:58;99265.11;;;12.35;47.51
69219;BME280;56232;53.384;-2.732;2023-09-19T06:05:22;99257.11;;;12.49;46.19
69219;BME280;56232;53.384;-2.732;2023-09-19T06:07:47;99246.95;;;12.39;46.86
69219;BME280;56232;53.384;-2.732;2023-09-19T06:10:13;99242.84;;;12.56;47.16
69219;BME280;56232;53.384;-2.732;2023-09-19T06:12:39;99243.43;;;12.57;46.54
69219;BME280;56232;53.384;-2.732;2023-09-19T06:15:05;99236.70;;;12.56;46.90
69219;BME280;56232;53.384;-2.732;2023-09-19T06:17:30;99234.43;;;12.62;47.54
69219;BME280;56232;53.384;-2.732;2023-09-19T06:19:55;99227.86;;;12.77;47.61
69219;BME280;56232;53.384;-2.732;2023-09-19T06:22:21;99221.49;;;12.93;47.19
69219;BME280;56232;53.384;-2.732;2023-09-19T06:24:47;99219.99;;;12.50;46.54
69219;BME280;56232;53.384;-2.732;2023-09-19T06:27:12;99200.56;;;12.55;47.20
69219;BME280;56232;53.384;-2.732;2023-09-19T06:29:38;99204.03;;;13.28;45.66
69219;BME280;56232;53.384;-2.732;2023-09-19T06:32:08;99200.00;;;13.30;46.52
69219;BME280;56232;53.384;-2.732;2023-09-19T06:34:29;99193.89;;;12.86;46.62
69219;BME280;56232;53.384;-2.732;2023-09-19T06:36:55;99191.02;;;12.94;46.51
69219;BME280;56232;53.384;-2.732;2023-09-19T06:39:20;99188.41;;;13.35;45.97
69219;BME280;56232;53.384;-2.732;2023-09-19T06:41:46;99185.04;;;13.34;46.54
69219;BME280;56232;53.384;-2.732;2023-09-19T06:44:12;99188.56;;;13.47;46.83
69219;BME280;56232;53.384;-2.732;2023-09-19T06:46:37;99178.17;;;13.12;46.56
69219;BME280;56232;53.384;-2.732;2023-09-19T06:49:02;99171.07;;;13.71;46.87
69219;BME280;56232;53.384;-2.732;2023-09-19T06:51:28;99163.83;;;13.34;46.34
69219;BME280;56232;53.384;-2.732;2023-09-19T06:53:54;99160.16;;;13.51;47.09
69219;BME280;56232;53.384;-2.732;2023-09-19T06:56:19;99160.86;;;13.63;46.33
69219;BME280;56232;53.384;-2.732;2023-09-19T06:58:44;99160.97;;;13.22;46.16
69219;BME280;56232;53.384;-2.732;2023-09-19T07:01:10;99159.44;;;13.33;47.16
69219;BME280;56232;53.384;-2.732;2023-09-19T07:03:36;99158.48;;;13.55;46.38
69219;BME280;56232;53.384;-2.732;2023-09-19T07:06:01;99150.56;;;13.66;46.15
69219;BME280;56232;53.384;-2.732;2023-09-19T07:08:27;99145.27;;;13.70;45.66
69219;BME280;56232;53.384;-2.732;2023-09-19T07:10:52;99148.14;;;13.82;46.67
69219;BME280;56232;53.384;-2.732;2023-09-19T07:13:18;99144.79;;;13.91;45.95
69219;BME280;56232;53.384;-2.732;2023-09-19T07:15:44;99140.74;;;14.00;44.98
69219;BME280;56232;53.384;-2.732;2023-09-19T07:18:09;99134.01;;;14.14;46.62
69219;BME280;56232;53.384;-2.732;2023-09-19T07:20:34;99134.79;;;14.35;46.04
69219;BME280;56232;53.384;-2.732;2023-09-19T07:23:00;99125.11;;;13.91;45.08
69219;BME280;56232;53.384;-2.732;2023-09-19T07:25:26;99119.18;;;14.65;44.58
69219;BME280;56232;53.384;-2.732;2023-09-19T07:27:51;99114.12;;;13.46;46.00
69219;BME280;56232;53.384;-2.732;2023-09-19T07:30:17;99110.02;;;14.73;45.19
69219;BME280;56232;53.384;-2.732;2023-09-19T07:32:43;99109.02;;;14.74;45.81
69219;BME280;56232;53.384;-2.732;2023-09-19T07:35:08;99103.49;;;14.91;45.30
69219;BME280;56232;53.384;-2.732;2023-09-19T07:37:34;99106.53;;;14.50;45.70
69219;BME280;56232;53.384;-2.732;2023-09-19T07:39:59;99102.76;;;14.72;45.44
69219;BME280;56232;53.384;-2.732;2023-09-19T07:42:25;99103.90;;;14.60;44.83
69219;BME280;56232;53.384;-2.732;2023-09-19T07:44:50;99111.20;;;15.23;45.05
69219;BME280;56232;53.384;-2.732;2023-09-19T07:47:16;99108.13;;;14.88;45.96
69219;BME280;56232;53.384;-2.732;2023-09-19T07:49:41;99115.78;;;14.91;45.42
69219;BME280;56232;53.384;-2.732;2023-09-19T07:52:08;99099.63;;;15.47;45.25
69219;BME280;56232;53.384;-2.732;2023-09-19T07:54:32;99107.06;;;15.21;46.00
69219;BME280;56232;53.384;-2.732;2023-09-19T07:56:58;99102.76;;;15.42;44.23
69219;BME280;56232;53.384;-2.732;2023-09-19T07:59:24;99110.17;;;14.97;43.96
69219;BME280;56232;53.384;-2.732;2023-09-19T08:01:49;99111.12;;;15.15;45.34
69219;BME280;56232;53.384;-2.732;2023-09-19T08:04:15;99114.37;;;14.82;45.99
69219;BME280;56232;53.384;-2.732;2023-09-19T08:06:40;99111.06;;;16.11;45.52
69219;BME280;56232;53.384;-2.732;2023-09-19T08:09:07;99110.71;;;15.70;44.16
69219;BME280;56232;53.384;-2.732;2023-09-19T08:11:32;99116.02;;;16.47;44.41
69219;BME280;56232;53.384;-2.732;2023-09-19T08:13:57;99111.50;;;16.02;44.15
69219;BME280;56232;53.384;-2.732;2023-09-19T08:16:23;99114.67;;;16.17;44.52
69219;BME280;56232;53.384;-2.732;2023-09-19T08:18:49;99113.33;;;16.31;43.61
69219;BME280;56232;53.384;-2.732;2023-09-19T08:21:14;99105.03;;;16.49;43.38
69219;BME280;56232;53.384;-2.732;2023-09-19T08:23:40;99108.91;;;16.18;43.92
69219;BME280;56232;53.384;-2.732;2023-09-19T08:26:06;99114.05;;;16.50;43.78
69219;BME280;56232;53.384;-2.732;2023-09-19T08:28:31;99117.23;;;16.55;44.43
69219;BME280;56232;53.384;-2.732;2023-09-19T08:31:01;99120.97;;;16.90;43.44
69219;BME280;56232;53.384;-2.732;2023-09-19T08:33:22;99119.16;;;17.13;44.18
69219;BME280;56232;53.384;-2.732;2023-09-19T08:35:47;99122.50;;;16.07;44.42
69219;BME280;56232;53.384;-2.732;2023-09-19T08:38:13;99128.29;;;16.18;44.38
69219;BME280;56232;53.384;-2.732;2023-09-19T08:40:39;99132.99;;;16.39;44.20
69219;BME280;56232;53.384;-2.732;2023-09-19T08:43:04;99130.42;;;17.13;43.51
69219;BME280;56232;53.384;-2.732;2023-09-19T08:45:30;99120.61;;;17.76;43.02
69219;BME280;56232;53.384;-2.732;2023-09-19T08:48:02;99132.10;;;16.67;44.60
69219;BME280;56232;53.384;-2.732;2023-09-19T08:50:26;99127.45;;;16.97;45.52
69219;BME280;56232;53.384;-2.732;2023-09-19T08:52:47;99129.86;;;17.38;43.96
69219;BME280;56232;53.384;-2.732;2023-09-19T08:55:13;99136.86;;;17.64;43.77
69219;BME280;56232;53.384;-2.732;2023-09-19T08:57:38;99140.42;;;17.16;44.63
69219;BME280;56232;53.384;-2.732;2023-09-19T09:00:05;99141.72;;;17.88;43.52
69219;BME280;56232;53.384;-2.732;2023-09-19T09:02:29;99141.05;;;17.94;43.04
69219;BME280;56232;53.384;-2.732;2023-09-19T09:04:54;99141.25;;;18.02;44.37
69219;BME280;56232;53.384;-2.732;2023-09-19T09:07:20;99149.12;;;17.96;42.91
69219;BME280;56232;53.384;-2.732;2023-09-19T09:09:45;99149.86;;;17.91;42.81
69219;BME280;56232;53.384;-2.732;2023-09-19T09:12:12;99153.98;;;17.44;43.20
69219;BME280;56232;53.384;-2.732;2023-09-19T09:14:36;99158.75;;;18.02;43.99
69219;BME280;56232;53.384;-2.732;2023-09-19T09:17:02;99152.65;;;17.95;43.39
69219;BME280;56232;53.384;-2.732;2023-09-19T09:19:28;99171.97;;;17.83;42.59
69219;BME280;56232;53.384;-2.732;2023-09-19T09:21:53;99156.46;;;17.25;44.27
69219;BME280;56232;53.384;-2.732;2023-09-19T09:24:26;99153.92;;;18.06;44.39
69219;BME280;56232;53.384;-2.732;2023-09-19T09:26:44;99157.98;;;18.17;42.86
69219;BME280;56232;53.384;-2.732;2023-09-19T09:29:10;99159.81;;;17.74;43.09
69219;BME280;56232;53.384;-2.732;2023-09-19T09:31:35;99159.37;;;18.31;42.67
69219;BME280;56232;53.384;-2.732;2023-09-19T09:34:01;99158.31;;;18.24;44.30
69219;BME280;56232;53.384;-2.732;2023-09-19T09:36:35;99165.64;;;17.40;44.38
69219;BME280;56232;53.384;-2.732;2023-09-19T09:38:52;99164.71;;;18.27;42.43
69219;BME280;56232;53.384;-2.732;2023-09-19T09:41:17;99167.27;;;18.77;42.89
69219;BME280;56232;53.384;-2.732;2023-09-19T09:43:43;99170.78;;;18.71;43.47
69219;BME280;56232;53.384;-2.732;2023-09-19T09:46:11;99166.88;;;18.30;43.10
69219;BME280;56232;53.384;-2.732;2023-09-19T09:48:34;99169.91;;;18.39;43.62
69219;BME280;56232;53.384;-2.732;2023-09-19T09:51:00;99167.09;;;18.01;42.98
69219;BME280;56232;53.384;-2.732;2023-09-19T09:53:26;99170.02;;;18.11;44.62
69219;BME280;56232;53.384;-2.732;2023-09-19T09:55:57;99174.48;;;18.85;43.23
69219;BME280;56232;53.384;-2.732;2023-09-19T09:58:17;99173.05;;;18.45;42.23
69219;BME280;56232;53.384;-2.732;2023-09-19T10:03:19;99182.72;;;19.18;43.13
69219;BME280;56232;53.384;-2.732;2023-09-19T10:05:33;99172.03;;;18.71;42.43
69219;BME280;56232;53.384;-2.732;2023-09-19T10:10:29;99182.96;;;18.67;42.85
69219;BME280;56232;53.384;-2.732;2023-09-19T10:12:53;99192.34;;;18.28;43.13
69219;BME280;56232;53.384;-2.732;2023-09-19T10:15:17;99182.60;;;19.07;43.88
69219;BME280;56232;53.384;-2.732;2023-09-19T10:17:42;99190.65;;;18.78;43.33
69219;BME280;56232;53.384;-2.732;2023-09-19T10:20:07;99196.34;;;19.60;42.16
69219;BME280;56232;53.384;-2.732;2023-09-19T10:22:34;99196.57;;;18.88;42.87
69219;BME280;56232;53.384;-2.732;2023-09-19T10:24:58;99192.37;;;18.99;44.56
69219;BME280;56232;53.384;-2.732;2023-09-19T10:27:26;99201.48;;;19.14;43.46
69219;BME280;56232;53.384;-2.732;2023-09-19T10:29:49;99199.75;;;19.81;43.90
69219;BME280;56232;53.384;-2.732;2023-09-19T10:32:15;99203.04;;;18.15;43.23
69219;BME280;56232;53.384;-2.732;2023-09-19T10:34:41;99208.66;;;19.29;43.50
69219;BME280;56232;53.384;-2.732;2023-09-19T10:37:06;99210.30;;;19.37;43.58
69219;BME280;56232;53.384;-2.732;2023-09-19T10:39:32;99206.18;;;18.33;42.63
69219;BME280;56232;53.384;-2.732;2023-09-19T10:41:57;99209.57;;;19.04;43.06
69219;BME280;56232;53.384;-2.732;2023-09-19T10:44:23;99209.85;;;18.93;42.21
69219;BME280;56232;53.384;-2.732;2023-09-19T10:46:47;99208.19;;;19.43;43.73
69219;BME280;56232;53.384;-2.732;2023-09-19T10:49:12;99209.51;;;18.90;44.38
69219;BME280;56232;53.384;-2.732;2023-09-19T10:51:40;99208.07;;;18.99;43.00
69219;BME280;56232;53.384;-2.732;2023-09-19T10:54:08;99214.65;;;18.36;42.95
69219;BME280;56232;53.384;-2.732;2023-09-19T10:56:30;99218.67;;;19.41;43.71
69219;BME280;56232;53.384;-2.732;2023-09-19T11:01:20;99212.20;;;18.83;43.80
69219;BME280;56232;53.384;-2.732;2023-09-19T11:03:46;99212.47;;;19.36;43.82
69219;BME280;56232;53.384;-2.732;2023-09-19T11:06:13;99212.08;;;18.87;43.62
69219;BME280;56232;53.384;-2.732;2023-09-19T11:11:02;99211.22;;;18.82;44.14
69219;BME280;56232;53.384;-2.732;2023-09-19T11:13:29;99209.52;;;19.08;43.71
69219;BME280;56232;53.384;-2.732;2023-09-19T11:20:44;99213.04;;;19.87;43.84
69219;BME280;56232;53.384;-2.732;2023-09-19T11:23:18;99217.69;;;19.05;44.97
69219;BME280;56232;53.384;-2.732;2023-09-19T11:25:41;99220.32;;;19.32;42.44
69219;BME280;56232;53.384;-2.732;2023-09-19T11:30:27;99221.89;;;18.77;43.05
69219;BME280;56232;53.384;-2.732;2023-09-19T11:35:18;99223.11;;;19.41;42.86
69219;BME280;56232;53.384;-2.732;2023-09-19T11:40:10;99222.78;;;19.76;43.03
69219;BME280;56232;53.384;-2.732;2023-09-19T11:42:43;99224.77;;;19.47;44.58
69219;BME280;56232;53.384;-2.732;2023-09-19T11:45:00;99228.06;;;19.22;43.10
69219;BME280;56232;53.384;-2.732;2023-09-19T11:47:26;99224.65;;;19.65;42.09
69219;BME280;56232;53.384;-2.732;2023-09-19T11:49:52;99230.58;;;19.13;42.96
69219;BME280;56232;53.384;-2.732;2023-09-19T11:52:21;99230.56;;;19.10;42.67
69219;BME280;56232;53.384;-2.732;2023-09-19T11:54:42;99230.49;;;19.60;43.36
69219;BME280;56232;53.384;-2.732;2023-09-19T11:57:09;99227.07;;;20.13;42.95
69219;BME280;56232;53.384;-2.732;2023-09-19T11:59:33;99237.74;;;19.08;42.16
69219;BME280;56232;53.384;-2.732;2023-09-19T12:02:03;99233.71;;;19.92;43.24
69219;BME280;56232;53.384;-2.732;2023-09-19T12:06:56;99233.03;;;19.86;42.57
69219;BME280;56232;53.384;-2.732;2023-09-19T12:09:15;99245.35;;;19.75;42.83
69219;BME280;56232;53.384;-2.732;2023-09-19T12:11:42;99239.77;;;19.02;43.52
69219;BME280;56232;53.384;-2.732;2023-09-19T12:14:07;99241.46;;;19.43;42.58
69219;BME280;56232;53.384;-2.732;2023-09-19T12:16:32;99247.16;;;18.33;42.80
69219;BME280;56232;53.384;-2.732;2023-09-19T12:18:57;99252.33;;;19.33;42.72
69219;BME280;56232;53.384;-2.732;2023-09-19T12:21:24;99249.40;;;18.81;42.69
69219;BME280;56232;53.384;-2.732;2023-09-19T12:23:57;99256.80;;;18.68;43.75
69219;BME280;56232;53.384;-2.732;2023-09-19T12:26:14;99248.07;;;18.16;44.05
69219;BME280;56232;53.384;-2.732;2023-09-19T12:28:41;99245.75;;;19.21;43.13
69219;BME280;56232;53.384;-2.732;2023-09-19T12:31:07;99250.99;;;19.16;43.12
69219;BME280;56232;53.384;-2.732;2023-09-19T12:33:30;99254.64;;;19.08;44.11
69219;BME280;56232;53.384;-2.732;2023-09-19T12:35:56;99247.39;;;19.79;43.15
69219;BME280;56232;53.384;-2.732;2023-09-19T12:38:25;99252.42;;;18.79;43.84
69219;BME280;56232;53.384;-2.732;2023-09-19T12:40:47;99250.93;;;19.51;43.72
69219;BME280;56232;53.384;-2.732;2023-09-19T12:43:13;99252.34;;;18.87;44.50
69219;BME280;56232;53.384;-2.732;2023-09-19T12:45:38;99252.40;;;19.08;44.56
69219;BME280;56232;53.384;-2.732;2023-09-19T12:50:29;99253.59;;;19.43;43.45
69219;BME280;56232;53.384;-2.732;2023-09-19T12:52:55;99254.52;;;19.56;43.42
69219;BME280;56232;53.384;-2.732;2023-09-19T12:55:23;99256.61;;;19.62;41.70
69219;BME280;56232;53.384;-2.732;2023-09-19T13:00:12;99256.58;;;19.58;40.92
69219;BME280;56232;53.384;-2.732;2023-09-19T13:02:37;99259.14;;;19.96;41.80
69219;BME280;56232;53.384;-2.732;2023-09-19T13:05:03;99262.47;;;19.57;40.63
69219;BME280;56232;53.384;-2.732;2023-09-19T13:14:44;99258.01;;;19.91;41.07
69219;BME280;56232;53.384;-2.732;2023-09-19T13:17:10;99253.85;;;19.62;42.15
69219;BME280;56232;53.384;-2.732;2023-09-19T13:19:37;99254.97;;;19.70;41.18